sensor_id;sensor_type;location;lat;lon;timestamp;P1;durP1;ratioP1;P2;durP2;ratioP2
74543;SDS011;63016;55.030;38.710;2024-02-23T00:01:28;21.25;;;7.30;;
74543;SDS011;63016;55.030;38.710;2024-02-23T00:03:53;22.23;;;7.45;;
74543;SDS011;63016;55.030;38.710;2024-02-23T00:06:20;18.45;;;7.95;;
74543;SDS011;63016;55.030;38.710;2024-02-23T00:08:47;17.95;;;7.13;;
74543;SDS011;63016;55.030;38.710;2024-02-23T00:11:13;16.17;;;6.88;;
74543;SDS011;63016;55.030;38.710;2024-02-23T00:13:39;18.83;;;7.15;;
74543;SDS011;63016;55.030;38.710;2024-02-23T00:16:04;19.63;;;6.55;;
74543;SDS011;63016;55.030;38.710;2024-02-23T00:18:30;19.27;;;6.50;;
74543;SDS011;63016;55.030;38.710;2024-02-23T00:20:55;23.42;;;6.97;;
74543;SDS011;63016;55.030;38.710;2024-02-23T00:23:21;26.80;;;8.32;;
74543;SDS011;63016;55.030;38.710;2024-02-23T00:25:47;18.60;;;6.75;;
74543;SDS011;63016;55.030;38.710;2024-02-23T00:28:13;22.33;;;7.15;;
74543;SDS011;63016;55.030;38.710;2024-02-23T00:30:38;20.95;;;7.40;;
74543;SDS011;63016;55.030;38.710;2024-02-23T00:33:04;21.05;;;7.03;;
74543;SDS011;63016;55.030;38.710;2024-02-23T00:35:30;24.00;;;6.88;;
74543;SDS011;63016;55.030;38.710;2024-02-23T00:37:55;18.77;;;6.70;;
74543;SDS011;63016;55.030;38.710;2024-02-23T00:40:21;16.17;;;7.07;;
74543;SDS011;63016;55.030;38.710;2024-02-23T00:42:48;20.80;;;7.03;;
74543;SDS011;63016;55.030;38.710;2024-02-23T00:45:14;21.85;;;7.40;;
74543;SDS011;63016;55.030;38.710;2024-02-23T00:47:39;23.40;;;7.13;;
74543;SDS011;63016;55.030;38.710;2024-02-23T00:50:05;23.88;;;7.88;;
74543;SDS011;63016;55.030;38.710;2024-02-23T00:52:31;15.75;;;6.25;;
74543;SDS011;63016;55.030;38.710;2024-02-23T00:54:57;18.85;;;6.75;;
74543;SDS011;63016;55.030;38.710;2024-02-23T00:57:23;16.98;;;6.78;;
74543;SDS011;63016;55.030;38.710;2024-02-23T00:59:54;17.00;;;7.17;;
74543;SDS011;63016;55.030;38.710;2024-02-23T01:02:23;22.77;;;7.60;;
74543;SDS011;63016;55.030;38.710;2024-02-23T01:04:48;18.77;;;6.82;;
74543;SDS011;63016;55.030;38.710;2024-02-23T01:07:14;17.50;;;6.70;;
74543;SDS011;63016;55.030;38.710;2024-02-23T01:09:39;17.92;;;6.75;;
74543;SDS011;63016;55.030;38.710;2024-02-23T01:12:05;17.55;;;6.63;;
74543;SDS011;63016;55.030;38.710;2024-02-23T01:14:31;18.40;;;7.00;;
74543;SDS011;63016;55.030;38.710;2024-02-23T01:16:56;19.42;;;6.68;;
74543;SDS011;63016;55.030;38.710;2024-02-23T01:19:22;20.38;;;7.28;;
74543;SDS011;63016;55.030;38.710;2024-02-23T01:21:48;22.65;;;7.43;;
74543;SDS011;63016;55.030;38.710;2024-02-23T01:24:20;21.90;;;7.43;;
74543;SDS011;63016;55.030;38.710;2024-02-23T01:26:46;16.77;;;6.80;;
74543;SDS011;63016;55.030;38.710;2024-02-23T01:29:11;16.80;;;7.20;;
74543;SDS011;63016;55.030;38.710;2024-02-23T01:31:37;14.48;;;6.13;;
74543;SDS011;63016;55.030;38.710;2024-02-23T01:34:03;18.95;;;7.55;;
74543;SDS011;63016;55.030;38.710;2024-02-23T01:36:28;19.83;;;7.45;;
74543;SDS011;63016;55.030;38.710;2024-02-23T01:38:54;15.23;;;6.60;;
74543;SDS011;63016;55.030;38.710;2024-02-23T01:41:20;17.10;;;6.32;;
74543;SDS011;63016;55.030;38.710;2024-02-23T01:43:45;18.85;;;6.93;;
74543;SDS011;63016;55.030;38.710;2024-02-23T01:46:11;19.08;;;6.70;;
74543;SDS011;63016;55.030;38.710;2024-02-23T01:48:36;18.27;;;6.88;;
74543;SDS011;63016;55.030;38.710;2024-02-23T01:51:02;16.48;;;6.43;;
74543;SDS011;63016;55.030;38.710;2024-02-23T01:53:28;19.27;;;7.50;;
74543;SDS011;63016;55.030;38.710;2024-02-23T01:55:54;19.17;;;6.78;;
74543;SDS011;63016;55.030;38.710;2024-02-23T01:58:20;20.27;;;7.15;;
74543;SDS011;63016;55.030;38.710;2024-02-23T02:00:46;21.60;;;6.97;;
74543;SDS011;63016;55.030;38.710;2024-02-23T02:03:12;16.92;;;6.15;;
74543;SDS011;63016;55.030;38.710;2024-02-23T02:05:37;20.27;;;7.13;;
74543;SDS011;63016;55.030;38.710;2024-02-23T02:08:03;18.10;;;6.70;;
74543;SDS011;63016;55.030;38.710;2024-02-23T02:10:29;19.77;;;6.60;;
74543;SDS011;63016;55.030;38.710;2024-02-23T02:12:55;16.60;;;6.15;;
74543;SDS011;63016;55.030;38.710;2024-02-23T02:15:26;17.27;;;6.57;;
74543;SDS011;63016;55.030;38.710;2024-02-23T02:17:52;20.25;;;6.30;;
74543;SDS011;63016;55.030;38.710;2024-02-23T02:20:17;22.75;;;6.38;;
74543;SDS011;63016;55.030;38.710;2024-02-23T02:22:43;23.20;;;7.82;;
74543;SDS011;63016;55.030;38.710;2024-02-23T02:25:09;22.80;;;6.70;;
74543;SDS011;63016;55.030;38.710;2024-02-23T02:27:34;19.58;;;7.10;;
74543;SDS011;63016;55.030;38.710;2024-02-23T02:30:01;17.25;;;7.20;;
74543;SDS011;63016;55.030;38.710;2024-02-23T02:32:26;19.13;;;7.10;;
74543;SDS011;63016;55.030;38.710;2024-02-23T02:34:52;19.73;;;6.68;;
74543;SDS011;63016;55.030;38.710;2024-02-23T02:37:17;15.57;;;6.13;;
74543;SDS011;63016;55.030;38.710;2024-02-23T02:39:43;19.00;;;6.78;;
74543;SDS011;63016;55.030;38.710;2024-02-23T02:42:08;18.70;;;7.28;;
74543;SDS011;63016;55.030;38.710;2024-02-23T02:44:34;17.52;;;6.90;;
74543;SDS011;63016;55.030;38.710;2024-02-23T02:47:00;15.75;;;6.47;;
74543;SDS011;63016;55.030;38.710;2024-02-23T02:49:26;18.13;;;6.63;;
74543;SDS011;63016;55.030;38.710;2024-02-23T02:51:51;21.05;;;6.82;;
74543;SDS011;63016;55.030;38.710;2024-02-23T02:54:16;18.27;;;6.47;;
74543;SDS011;63016;55.030;38.710;2024-02-23T02:56:43;17.45;;;6.93;;
74543;SDS011;63016;55.030;38.710;2024-02-23T02:59:10;23.42;;;6.75;;
74543;SDS011;63016;55.030;38.710;2024-02-23T03:01:36;17.60;;;6.30;;
74543;SDS011;63016;55.030;38.710;2024-02-23T03:04:01;15.93;;;6.93;;
74543;SDS011;63016;55.030;38.710;2024-02-23T03:06:27;19.70;;;6.97;;
74543;SDS011;63016;55.030;38.710;2024-02-23T03:08:52;17.00;;;6.07;;
74543;SDS011;63016;55.030;38.710;2024-02-23T03:11:18;17.35;;;5.72;;
74543;SDS011;63016;55.030;38.710;2024-02-23T03:13:43;15.13;;;6.28;;
74543;SDS011;63016;55.030;38.710;2024-02-23T03:16:16;17.33;;;6.50;;
74543;SDS011;63016;55.030;38.710;2024-02-23T03:18:42;17.15;;;6.00;;
74543;SDS011;63016;55.030;38.710;2024-02-23T03:21:08;16.02;;;6.18;;
74543;SDS011;63016;55.030;38.710;2024-02-23T03:23:35;16.60;;;5.97;;
74543;SDS011;63016;55.030;38.710;2024-02-23T03:26:01;16.35;;;6.03;;
74543;SDS011;63016;55.030;38.710;2024-02-23T03:28:27;16.17;;;6.55;;
74543;SDS011;63016;55.030;38.710;2024-02-23T03:30:53;26.88;;;6.72;;
74543;SDS011;63016;55.030;38.710;2024-02-23T03:33:18;19.40;;;6.25;;
74543;SDS011;63016;55.030;38.710;2024-02-23T03:35:44;18.80;;;6.72;;
74543;SDS011;63016;55.030;38.710;2024-02-23T03:38:09;19.70;;;6.40;;
74543;SDS011;63016;55.030;38.710;2024-02-23T03:40:35;17.45;;;6.13;;
74543;SDS011;63016;55.030;38.710;2024-02-23T03:43:01;19.60;;;6.32;;
74543;SDS011;63016;55.030;38.710;2024-02-23T03:45:27;17.30;;;6.05;;
74543;SDS011;63016;55.030;38.710;2024-02-23T03:47:53;15.77;;;6.15;;
74543;SDS011;63016;55.030;38.710;2024-02-23T03:50:18;21.67;;;6.35;;
74543;SDS011;63016;55.030;38.710;2024-02-23T03:52:44;16.55;;;6.75;;
74543;SDS011;63016;55.030;38.710;2024-02-23T03:55:09;20.40;;;6.32;;
74543;SDS011;63016;55.030;38.710;2024-02-23T03:57:35;19.73;;;7.28;;
74543;SDS011;63016;55.030;38.710;2024-02-23T04:00:01;21.80;;;6.82;;
74543;SDS011;63016;55.030;38.710;2024-02-23T04:02:27;17.23;;;6.55;;
74543;SDS011;63016;55.030;38.710;2024-02-23T04:04:53;19.20;;;7.10;;
74543;SDS011;63016;55.030;38.710;2024-02-23T04:07:19;20.38;;;8.13;;
74543;SDS011;63016;55.030;38.710;2024-02-23T04:09:44;18.52;;;6.13;;
74543;SDS011;63016;55.030;38.710;2024-02-23T04:12:10;13.73;;;6.22;;
74543;SDS011;63016;55.030;38.710;2024-02-23T04:14:36;17.90;;;6.22;;
74543;SDS011;63016;55.030;38.710;2024-02-23T04:17:04;15.05;;;5.80;;
74543;SDS011;63016;55.030;38.710;2024-02-23T04:19:30;18.08;;;6.95;;
74543;SDS011;63016;55.030;38.710;2024-02-23T04:21:55;16.38;;;6.28;;
74543;SDS011;63016;55.030;38.710;2024-02-23T04:24:21;16.55;;;6.18;;
74543;SDS011;63016;55.030;38.710;2024-02-23T04:26:47;18.48;;;6.50;;
74543;SDS011;63016;55.030;38.710;2024-02-23T04:29:12;14.85;;;5.57;;
74543;SDS011;63016;55.030;38.710;2024-02-23T04:31:38;18.42;;;6.40;;
74543;SDS011;63016;55.030;38.710;2024-02-23T04:34:03;14.43;;;6.15;;
74543;SDS011;63016;55.030;38.710;2024-02-23T04:36:29;17.25;;;6.70;;
74543;SDS011;63016;55.030;38.710;2024-02-23T04:38:54;16.05;;;6.47;;
74543;SDS011;63016;55.030;38.710;2024-02-23T04:41:20;17.27;;;5.97;;
74543;SDS011;63016;55.030;38.710;2024-02-23T04:43:49;16.90;;;6.93;;
74543;SDS011;63016;55.030;38.710;2024-02-23T04:46:15;16.52;;;6.57;;
74543;SDS011;63016;55.030;38.710;2024-02-23T04:48:41;16.80;;;6.85;;
74543;SDS011;63016;55.030;38.710;2024-02-23T04:51:07;16.65;;;6.32;;
74543;SDS011;63016;55.030;38.710;2024-02-23T04:53:38;15.02;;;6.20;;
74543;SDS011;63016;55.030;38.710;2024-02-23T04:56:04;19.40;;;6.88;;
74543;SDS011;63016;55.030;38.710;2024-02-23T04:58:30;17.88;;;7.22;;
74543;SDS011;63016;55.030;38.710;2024-02-23T05:00:55;19.42;;;7.05;;
74543;SDS011;63016;55.030;38.710;2024-02-23T05:03:21;16.13;;;6.43;;
74543;SDS011;63016;55.030;38.710;2024-02-23T05:05:46;17.80;;;6.63;;
74543;SDS011;63016;55.030;38.710;2024-02-23T05:08:13;19.65;;;6.03;;
74543;SDS011;63016;55.030;38.710;2024-02-23T05:10:38;16.85;;;6.32;;
74543;SDS011;63016;55.030;38.710;2024-02-23T05:13:04;16.35;;;7.10;;
74543;SDS011;63016;55.030;38.710;2024-02-23T05:15:30;14.93;;;5.57;;
74543;SDS011;63016;55.030;38.710;2024-02-23T05:17:55;12.57;;;5.80;;
74543;SDS011;63016;55.030;38.710;2024-02-23T05:20:21;14.52;;;6.28;;
74543;SDS011;63016;55.030;38.710;2024-02-23T05:22:47;17.27;;;5.90;;
74543;SDS011;63016;55.030;38.710;2024-02-23T05:25:13;18.73;;;6.95;;
74543;SDS011;63016;55.030;38.710;2024-02-23T05:27:39;17.20;;;6.05;;
74543;SDS011;63016;55.030;38.710;2024-02-23T05:30:04;15.60;;;5.78;;
74543;SDS011;63016;55.030;38.710;2024-02-23T05:32:31;21.17;;;6.68;;
74543;SDS011;63016;55.030;38.710;2024-02-23T05:34:57;20.85;;;6.00;;
74543;SDS011;63016;55.030;38.710;2024-02-23T05:37:23;17.02;;;6.00;;
74543;SDS011;63016;55.030;38.710;2024-02-23T05:39:49;12.10;;;5.88;;
74543;SDS011;63016;55.030;38.710;2024-02-23T05:42:14;16.85;;;6.57;;
74543;SDS011;63016;55.030;38.710;2024-02-23T05:44:43;18.15;;;6.20;;
74543;SDS011;63016;55.030;38.710;2024-02-23T05:47:08;15.23;;;6.70;;
74543;SDS011;63016;55.030;38.710;2024-02-23T05:49:35;17.40;;;6.53;;
74543;SDS011;63016;55.030;38.710;2024-02-23T05:52:00;17.33;;;6.30;;
74543;SDS011;63016;55.030;38.710;2024-02-23T05:54:26;17.00;;;5.93;;
74543;SDS011;63016;55.030;38.710;2024-02-23T05:56:51;20.58;;;6.47;;
74543;SDS011;63016;55.030;38.710;2024-02-23T05:59:17;18.17;;;6.03;;
74543;SDS011;63016;55.030;38.710;2024-02-23T06:01:42;16.63;;;6.57;;
74543;SDS011;63016;55.030;38.710;2024-02-23T06:04:08;17.73;;;6.63;;
74543;SDS011;63016;55.030;38.710;2024-02-23T06:06:34;16.70;;;6.30;;
74543;SDS011;63016;55.030;38.710;2024-02-23T06:09:00;23.08;;;6.80;;
74543;SDS011;63016;55.030;38.710;2024-02-23T06:11:25;16.70;;;6.80;;
74543;SDS011;63016;55.030;38.710;2024-02-23T06:13:51;20.35;;;6.25;;
74543;SDS011;63016;55.030;38.710;2024-02-23T06:16:16;23.90;;;6.70;;
74543;SDS011;63016;55.030;38.710;2024-02-23T06:18:42;17.52;;;6.20;;
74543;SDS011;63016;55.030;38.710;2024-02-23T06:21:12;19.77;;;6.60;;
74543;SDS011;63016;55.030;38.710;2024-02-23T06:23:41;16.83;;;6.28;;
74543;SDS011;63016;55.030;38.710;2024-02-23T06:26:07;13.32;;;6.05;;
74543;SDS011;63016;55.030;38.710;2024-02-23T06:28:32;18.27;;;6.55;;
74543;SDS011;63016;55.030;38.710;2024-02-23T06:30:58;19.02;;;7.13;;
74543;SDS011;63016;55.030;38.710;2024-02-23T06:33:24;18.73;;;6.50;;
74543;SDS011;63016;55.030;38.710;2024-02-23T06:35:50;18.17;;;6.00;;
74543;SDS011;63016;55.030;38.710;2024-02-23T06:38:17;17.17;;;6.22;;
74543;SDS011;63016;55.030;38.710;2024-02-23T06:40:43;22.20;;;6.88;;
74543;SDS011;63016;55.030;38.710;2024-02-23T06:43:08;15.82;;;6.25;;
74543;SDS011;63016;55.030;38.710;2024-02-23T06:45:34;17.05;;;6.72;;
74543;SDS011;63016;55.030;38.710;2024-02-23T06:47:59;19.90;;;7.00;;
74543;SDS011;63016;55.030;38.710;2024-02-23T06:50:25;17.58;;;6.78;;
74543;SDS011;63016;55.030;38.710;2024-02-23T06:52:50;17.85;;;7.50;;
74543;SDS011;63016;55.030;38.710;2024-02-23T06:55:16;21.17;;;6.63;;
74543;SDS011;63016;55.030;38.710;2024-02-23T06:57:42;17.58;;;6.53;;
74543;SDS011;63016;55.030;38.710;2024-02-23T07:00:08;18.73;;;6.13;;
74543;SDS011;63016;55.030;38.710;2024-02-23T07:02:34;15.82;;;6.18;;
74543;SDS011;63016;55.030;38.710;2024-02-23T07:05:02;19.85;;;6.45;;
74543;SDS011;63016;55.030;38.710;2024-02-23T07:07:31;18.30;;;6.68;;
74543;SDS011;63016;55.030;38.710;2024-02-23T07:09:58;19.58;;;7.03;;
74543;SDS011;63016;55.030;38.710;2024-02-23T07:12:25;17.20;;;7.45;;
74543;SDS011;63016;55.030;38.710;2024-02-23T07:14:53;15.50;;;6.88;;
74543;SDS011;63016;55.030;38.710;2024-02-23T07:17:18;14.65;;;6.28;;
74543;SDS011;63016;55.030;38.710;2024-02-23T07:19:44;17.98;;;6.80;;
74543;SDS011;63016;55.030;38.710;2024-02-23T07:22:10;15.90;;;6.45;;
74543;SDS011;63016;55.030;38.710;2024-02-23T07:24:39;15.65;;;6.72;;
74543;SDS011;63016;55.030;38.710;2024-02-23T07:27:05;21.58;;;6.93;;
74543;SDS011;63016;55.030;38.710;2024-02-23T07:29:31;13.68;;;6.07;;
74543;SDS011;63016;55.030;38.710;2024-02-23T07:31:56;15.65;;;5.68;;
74543;SDS011;63016;55.030;38.710;2024-02-23T07:34:22;26.85;;;6.75;;
74543;SDS011;63016;55.030;38.710;2024-02-23T07:36:47;17.13;;;6.50;;
74543;SDS011;63016;55.030;38.710;2024-02-23T07:39:16;15.27;;;5.82;;
74543;SDS011;63016;55.030;38.710;2024-02-23T07:41:42;16.85;;;6.00;;
74543;SDS011;63016;55.030;38.710;2024-02-23T07:44:07;13.82;;;6.25;;
74543;SDS011;63016;55.030;38.710;2024-02-23T07:46:33;13.48;;;6.03;;
74543;SDS011;63016;55.030;38.710;2024-02-23T07:48:58;14.85;;;6.13;;
74543;SDS011;63016;55.030;38.710;2024-02-23T07:51:24;16.25;;;6.28;;
74543;SDS011;63016;55.030;38.710;2024-02-23T07:53:49;14.50;;;5.75;;
74543;SDS011;63016;55.030;38.710;2024-02-23T07:56:15;16.77;;;5.65;;
74543;SDS011;63016;55.030;38.710;2024-02-23T07:58:40;18.42;;;6.75;;
74543;SDS011;63016;55.030;38.710;2024-02-23T08:01:06;18.85;;;6.15;;
74543;SDS011;63016;55.030;38.710;2024-02-23T08:03:31;14.73;;;5.85;;
74543;SDS011;63016;55.030;38.710;2024-02-23T08:05:57;18.10;;;6.20;;
74543;SDS011;63016;55.030;38.710;2024-02-23T08:08:22;18.02;;;5.35;;
74543;SDS011;63016;55.030;38.710;2024-02-23T08:10:50;14.13;;;5.72;;
74543;SDS011;63016;55.030;38.710;2024-02-23T08:13:15;16.77;;;5.75;;
74543;SDS011;63016;55.030;38.710;2024-02-23T08:15:42;15.38;;;6.00;;
74543;SDS011;63016;55.030;38.710;2024-02-23T08:18:08;13.73;;;5.53;;
74543;SDS011;63016;55.030;38.710;2024-02-23T08:20:34;13.20;;;5.70;;
74543;SDS011;63016;55.030;38.710;2024-02-23T08:22:59;16.65;;;6.03;;
74543;SDS011;63016;55.030;38.710;2024-02-23T08:25:25;18.10;;;6.25;;
74543;SDS011;63016;55.030;38.710;2024-02-23T08:27:53;14.65;;;5.78;;
74543;SDS011;63016;55.030;38.710;2024-02-23T08:30:19;11.93;;;5.50;;
74543;SDS011;63016;55.030;38.710;2024-02-23T08:32:45;14.88;;;5.75;;
74543;SDS011;63016;55.030;38.710;2024-02-23T08:35:10;15.80;;;6.18;;
74543;SDS011;63016;55.030;38.710;2024-02-23T08:37:36;15.73;;;5.60;;
74543;SDS011;63016;55.030;38.710;2024-02-23T08:40:02;14.07;;;5.97;;
74543;SDS011;63016;55.030;38.710;2024-02-23T08:42:28;14.70;;;6.40;;
74543;SDS011;63016;55.030;38.710;2024-02-23T08:44:54;15.32;;;5.53;;
74543;SDS011;63016;55.030;38.710;2024-02-23T08:47:19;15.57;;;5.45;;
74543;SDS011;63016;55.030;38.710;2024-02-23T08:49:45;16.27;;;5.43;;
74543;SDS011;63016;55.030;38.710;2024-02-23T08:52:11;16.98;;;5.95;;
74543;SDS011;63016;55.030;38.710;2024-02-23T08:54:37;16.50;;;6.38;;
74543;SDS011;63016;55.030;38.710;2024-02-23T08:57:04;19.65;;;5.55;;
74543;SDS011;63016;55.030;38.710;2024-02-23T08:59:30;12.93;;;5.47;;
74543;SDS011;63016;55.030;38.710;2024-02-23T09:01:55;13.52;;;5.68;;
74543;SDS011;63016;55.030;38.710;2024-02-23T09:04:21;14.65;;;5.60;;
74543;SDS011;63016;55.030;38.710;2024-02-23T09:06:46;12.13;;;5.22;;
74543;SDS011;63016;55.030;38.710;2024-02-23T09:09:14;15.27;;;5.40;;
74543;SDS011;63016;55.030;38.710;2024-02-23T09:11:39;13.57;;;5.18;;
74543;SDS011;63016;55.030;38.710;2024-02-23T09:16:50;13.52;;;5.63;;
74543;SDS011;63016;55.030;38.710;2024-02-23T09:19:16;17.35;;;5.38;;
74543;SDS011;63016;55.030;38.710;2024-02-23T09:21:42;14.68;;;5.38;;
74543;SDS011;63016;55.030;38.710;2024-02-23T09:24:08;15.65;;;5.40;;
74543;SDS011;63016;55.030;38.710;2024-02-23T09:26:33;14.32;;;5.82;;
74543;SDS011;63016;55.030;38.710;2024-02-23T09:28:59;16.48;;;5.70;;
74543;SDS011;63016;55.030;38.710;2024-02-23T09:31:24;13.52;;;5.30;;
74543;SDS011;63016;55.030;38.710;2024-02-23T09:33:51;16.60;;;5.20;;
74543;SDS011;63016;55.030;38.710;2024-02-23T09:36:17;14.75;;;5.57;;
74543;SDS011;63016;55.030;38.710;2024-02-23T09:38:42;13.27;;;5.22;;
74543;SDS011;63016;55.030;38.710;2024-02-23T09:41:15;13.27;;;5.53;;
74543;SDS011;63016;55.030;38.710;2024-02-23T09:43:46;14.32;;;5.28;;
74543;SDS011;63016;55.030;38.710;2024-02-23T09:46:14;19.77;;;5.50;;
74543;SDS011;63016;55.030;38.710;2024-02-23T09:48:44;13.05;;;5.78;;
74543;SDS011;63016;55.030;38.710;2024-02-23T09:51:13;15.95;;;5.50;;
74543;SDS011;63016;55.030;38.710;2024-02-23T09:53:40;15.00;;;5.57;;
74543;SDS011;63016;55.030;38.710;2024-02-23T09:56:06;19.08;;;5.82;;
74543;SDS011;63016;55.030;38.710;2024-02-23T09:58:34;17.15;;;5.72;;
74543;SDS011;63016;55.030;38.710;2024-02-23T10:01:01;15.80;;;5.93;;
74543;SDS011;63016;55.030;38.710;2024-02-23T10:03:28;17.73;;;6.10;;
74543;SDS011;63016;55.030;38.710;2024-02-23T10:05:58;13.73;;;5.60;;
74543;SDS011;63016;55.030;38.710;2024-02-23T10:08:26;16.55;;;5.53;;
74543;SDS011;63016;55.030;38.710;2024-02-23T10:10:53;17.38;;;6.32;;
74543;SDS011;63016;55.030;38.710;2024-02-23T10:13:19;16.92;;;5.95;;
74543;SDS011;63016;55.030;38.710;2024-02-23T10:15:52;22.33;;;6.70;;
74543;SDS011;63016;55.030;38.710;2024-02-23T10:18:18;19.58;;;6.70;;
74543;SDS011;63016;55.030;38.710;2024-02-23T10:20:45;16.52;;;6.95;;
74543;SDS011;63016;55.030;38.710;2024-02-23T10:23:11;16.58;;;6.55;;
74543;SDS011;63016;55.030;38.710;2024-02-23T10:25:55;23.60;;;6.43;;
74543;SDS011;63016;55.030;38.710;2024-02-23T10:28:21;16.60;;;5.93;;
74543;SDS011;63016;55.030;38.710;2024-02-23T10:30:48;16.55;;;6.07;;
74543;SDS011;63016;55.030;38.710;2024-02-23T10:33:14;24.40;;;7.22;;
74543;SDS011;63016;55.030;38.710;2024-02-23T10:35:39;20.10;;;7.05;;
74543;SDS011;63016;55.030;38.710;2024-02-23T10:38:09;20.15;;;7.40;;
74543;SDS011;63016;55.030;38.710;2024-02-23T10:40:37;19.95;;;6.97;;
74543;SDS011;63016;55.030;38.710;2024-02-23T10:43:08;16.50;;;6.65;;
74543;SDS011;63016;55.030;38.710;2024-02-23T10:45:38;22.63;;;7.78;;
74543;SDS011;63016;55.030;38.710;2024-02-23T10:48:06;20.35;;;7.07;;
74543;SDS011;63016;55.030;38.710;2024-02-23T10:50:34;20.08;;;7.78;;
74543;SDS011;63016;55.030;38.710;2024-02-23T10:53:01;23.98;;;6.75;;
74543;SDS011;63016;55.030;38.710;2024-02-23T10:55:28;20.58;;;7.18;;
74543;SDS011;63016;55.030;38.710;2024-02-23T10:57:57;23.52;;;8.27;;
74543;SDS011;63016;55.030;38.710;2024-02-23T11:00:24;18.88;;;6.78;;
74543;SDS011;63016;55.030;38.710;2024-02-23T11:02:51;20.63;;;7.38;;
74543;SDS011;63016;55.030;38.710;2024-02-23T11:05:18;20.30;;;7.25;;
74543;SDS011;63016;55.030;38.710;2024-02-23T11:07:47;19.92;;;7.47;;
74543;SDS011;63016;55.030;38.710;2024-02-23T11:10:17;20.05;;;7.93;;
74543;SDS011;63016;55.030;38.710;2024-02-23T11:12:44;26.77;;;7.10;;
74543;SDS011;63016;55.030;38.710;2024-02-23T11:15:09;21.23;;;7.35;;
74543;SDS011;63016;55.030;38.710;2024-02-23T11:17:51;28.17;;;8.45;;
74543;SDS011;63016;55.030;38.710;2024-02-23T11:20:17;23.98;;;7.72;;
74543;SDS011;63016;55.030;38.710;2024-02-23T11:22:42;19.65;;;7.93;;
74543;SDS011;63016;55.030;38.710;2024-02-23T11:25:08;21.70;;;7.88;;
74543;SDS011;63016;55.030;38.710;2024-02-23T11:27:35;26.33;;;8.68;;
74543;SDS011;63016;55.030;38.710;2024-02-23T11:30:09;22.35;;;8.13;;
74543;SDS011;63016;55.030;38.710;2024-02-23T11:32:37;21.08;;;8.20;;
74543;SDS011;63016;55.030;38.710;2024-02-23T11:35:05;25.40;;;7.45;;
74543;SDS011;63016;55.030;38.710;2024-02-23T11:37:32;23.17;;;8.20;;
74543;SDS011;63016;55.030;38.710;2024-02-23T11:39:58;19.52;;;7.68;;
74543;SDS011;63016;55.030;38.710;2024-02-23T11:42:27;21.15;;;8.63;;
74543;SDS011;63016;55.030;38.710;2024-02-23T11:44:53;25.67;;;8.07;;
74543;SDS011;63016;55.030;38.710;2024-02-23T11:47:21;27.83;;;8.35;;
74543;SDS011;63016;55.030;38.710;2024-02-23T11:49:46;21.98;;;7.70;;
74543;SDS011;63016;55.030;38.710;2024-02-23T11:52:12;22.95;;;8.60;;
74543;SDS011;63016;55.030;38.710;2024-02-23T11:54:37;23.73;;;8.70;;
74543;SDS011;63016;55.030;38.710;2024-02-23T11:57:03;21.83;;;7.75;;
74543;SDS011;63016;55.030;38.710;2024-02-23T11:59:47;19.77;;;7.93;;
74543;SDS011;63016;55.030;38.710;2024-02-23T12:02:13;20.08;;;8.35;;
74543;SDS011;63016;55.030;38.710;2024-02-23T12:04:38;23.27;;;8.48;;
74543;SDS011;63016;55.030;38.710;2024-02-23T12:07:04;20.88;;;7.90;;
74543;SDS011;63016;55.030;38.710;2024-02-23T12:09:30;20.77;;;7.97;;
74543;SDS011;63016;55.030;38.710;2024-02-23T12:11:55;21.40;;;8.20;;
74543;SDS011;63016;55.030;38.710;2024-02-23T12:14:21;23.60;;;8.32;;
74543;SDS011;63016;55.030;38.710;2024-02-23T12:16:47;22.55;;;7.80;;
74543;SDS011;63016;55.030;38.710;2024-02-23T12:19:14;21.50;;;9.05;;
74543;SDS011;63016;55.030;38.710;2024-02-23T12:21:40;25.17;;;9.43;;
74543;SDS011;63016;55.030;38.710;2024-02-23T12:24:06;27.10;;;8.48;;
74543;SDS011;63016;55.030;38.710;2024-02-23T12:26:33;21.30;;;8.20;;
74543;SDS011;63016;55.030;38.710;2024-02-23T12:29:01;20.90;;;7.78;;
74543;SDS011;63016;55.030;38.710;2024-02-23T12:33:59;21.55;;;8.05;;
74543;SDS011;63016;55.030;38.710;2024-02-23T12:36:25;20.30;;;8.45;;
74543;SDS011;63016;55.030;38.710;2024-02-23T12:38:51;19.40;;;8.63;;
74543;SDS011;63016;55.030;38.710;2024-02-23T12:41:16;22.35;;;8.55;;
74543;SDS011;63016;55.030;38.710;2024-02-23T12:43:42;19.58;;;8.43;;
74543;SDS011;63016;55.030;38.710;2024-02-23T12:46:07;19.75;;;8.35;;
74543;SDS011;63016;55.030;38.710;2024-02-23T12:48:34;21.42;;;8.73;;
74543;SDS011;63016;55.030;38.710;2024-02-23T12:51:00;24.42;;;8.55;;
74543;SDS011;63016;55.030;38.710;2024-02-23T12:53:33;21.35;;;8.15;;
74543;SDS011;63016;55.030;38.710;2024-02-23T12:56:06;24.20;;;8.32;;
74543;SDS011;63016;55.030;38.710;2024-02-23T12:58:41;21.98;;;8.35;;
74543;SDS011;63016;55.030;38.710;2024-02-23T13:01:08;22.58;;;8.80;;
74543;SDS011;63016;55.030;38.710;2024-02-23T13:06:18;19.67;;;7.90;;
74543;SDS011;63016;55.030;38.710;2024-02-23T13:08:44;22.05;;;8.55;;
74543;SDS011;63016;55.030;38.710;2024-02-23T13:11:09;23.38;;;8.38;;
74543;SDS011;63016;55.030;38.710;2024-02-23T13:13:35;20.95;;;8.73;;
74543;SDS011;63016;55.030;38.710;2024-02-23T13:16:00;19.08;;;8.15;;
74543;SDS011;63016;55.030;38.710;2024-02-23T13:18:26;21.38;;;8.65;;
74543;SDS011;63016;55.030;38.710;2024-02-23T13:20:52;24.30;;;8.63;;
74543;SDS011;63016;55.030;38.710;2024-02-23T13:23:17;28.95;;;9.20;;
74543;SDS011;63016;55.030;38.710;2024-02-23T13:25:43;19.92;;;8.98;;
74543;SDS011;63016;55.030;38.710;2024-02-23T13:28:09;29.63;;;9.02;;
74543;SDS011;63016;55.030;38.710;2024-02-23T13:30:35;24.05;;;9.00;;
74543;SDS011;63016;55.030;38.710;2024-02-23T13:33:02;24.20;;;9.70;;
74543;SDS011;63016;55.030;38.710;2024-02-23T13:35:28;21.85;;;9.70;;
74543;SDS011;63016;55.030;38.710;2024-02-23T13:37:54;26.95;;;9.70;;
74543;SDS011;63016;55.030;38.710;2024-02-23T13:40:20;26.77;;;9.70;;
74543;SDS011;63016;55.030;38.710;2024-02-23T13:42:46;23.65;;;9.40;;
74543;SDS011;63016;55.030;38.710;2024-02-23T13:45:15;22.85;;;9.25;;
74543;SDS011;63016;55.030;38.710;2024-02-23T13:47:42;21.67;;;9.38;;
74543;SDS011;63016;55.030;38.710;2024-02-23T13:50:09;24.48;;;9.52;;
74543;SDS011;63016;55.030;38.710;2024-02-23T13:52:35;32.05;;;12.10;;
74543;SDS011;63016;55.030;38.710;2024-02-23T13:55:01;25.95;;;9.48;;
74543;SDS011;63016;55.030;38.710;2024-02-23T13:57:27;22.27;;;8.75;;
74543;SDS011;63016;55.030;38.710;2024-02-23T13:59:52;23.25;;;8.82;;
74543;SDS011;63016;55.030;38.710;2024-02-23T14:02:27;31.98;;;8.13;;
74543;SDS011;63016;55.030;38.710;2024-02-23T14:04:59;23.70;;;8.68;;
74543;SDS011;63016;55.030;38.710;2024-02-23T14:07:28;27.60;;;8.98;;
74543;SDS011;63016;55.030;38.710;2024-02-23T14:09:54;26.17;;;9.73;;
74543;SDS011;63016;55.030;38.710;2024-02-23T14:12:19;28.17;;;9.73;;
74543;SDS011;63016;55.030;38.710;2024-02-23T14:14:45;23.95;;;9.75;;
74543;SDS011;63016;55.030;38.710;2024-02-23T14:17:10;28.10;;;9.95;;
74543;SDS011;63016;55.030;38.710;2024-02-23T14:19:36;25.95;;;10.50;;
74543;SDS011;63016;55.030;38.710;2024-02-23T14:22:01;61.35;;;10.38;;
74543;SDS011;63016;55.030;38.710;2024-02-23T14:24:27;33.97;;;11.00;;